createdAt,value
2022-10-16T00:02:31.829Z,29.23
2022-10-16T00:05:18.841Z,28.08
2022-10-16T00:07:51.897Z,25.70
2022-10-16T00:10:38.838Z,26.02
2022-10-16T00:13:12.901Z,26.65
2022-10-16T00:16:02.821Z,26.85
2022-10-16T00:18:38.134Z,27.08
2022-10-16T00:21:28.829Z,25.42
2022-10-16T00:24:19.925Z,24.73
2022-10-16T00:27:06.833Z,26.23
2022-10-16T00:29:39.962Z,25.92
2022-10-16T00:32:28.125Z,26.10
2022-10-16T00:35:01.168Z,28.00
2022-10-16T00:37:47.841Z,25.92
2022-10-16T00:40:20.909Z,26.52
2022-10-16T00:43:07.873Z,25.27
2022-10-16T00:45:40.925Z,26.77
2022-10-16T00:48:30.837Z,26.83
2022-10-16T00:51:12.864Z,26.52
2022-10-16T00:54:06.842Z,26.80
2022-10-16T00:56:53.865Z,26.60
2022-10-16T00:59:31.943Z,26.17
2022-10-16T01:02:21.861Z,26.77
2022-10-16T01:04:59.504Z,27.05
2022-10-16T01:08:01.869Z,25.73
2022-10-16T01:10:43.946Z,28.40
2022-10-16T01:13:45.857Z,26.95
2022-10-16T01:16:33.851Z,26.60
2022-10-16T01:19:33.855Z,28.20
2022-10-16T01:22:20.878Z,27.38
2022-10-16T01:24:56.975Z,25.92
2022-10-16T01:27:47.844Z,29.00
2022-10-16T01:30:32.898Z,28.23
2022-10-16T01:33:41.912Z,26.13
2022-10-16T01:36:40.863Z,27.27
2022-10-16T01:39:38.866Z,27.08
2022-10-16T01:42:34.890Z,26.25
2022-10-16T01:45:12.305Z,27.58
2022-10-16T01:48:00.887Z,26.70
2022-10-16T01:50:35.175Z,28.35
2022-10-16T01:53:23.873Z,29.38
2022-10-16T01:55:59.990Z,27.85
2022-10-16T01:58:52.859Z,30.77
2022-10-16T02:01:32.962Z,26.58
2022-10-16T02:04:26.887Z,26.90
2022-10-16T02:07:00.974Z,28.23
2022-10-16T02:09:47.883Z,27.00
2022-10-16T02:12:40.882Z,27.98
2022-10-16T02:15:27.888Z,28.58
2022-10-16T02:18:01.163Z,26.73
2022-10-16T02:21:06.889Z,25.83
2022-10-16T02:24:01.852Z,25.88
2022-10-16T02:27:02.900Z,27.38
2022-10-16T02:29:57.892Z,27.38
2022-10-16T02:32:34.958Z,26.48
2022-10-16T02:35:34.898Z,27.25
2022-10-16T02:38:30.903Z,24.73
2022-10-16T02:41:17.918Z,27.77
2022-10-16T02:43:50.979Z,25.58
2022-10-16T02:46:37.926Z,26.15
2022-10-16T02:49:17.063Z,27.35
2022-10-16T02:52:03.901Z,27.38
2022-10-16T02:54:36.980Z,25.13
2022-10-16T02:57:24.169Z,26.42
2022-10-16T02:59:58.048Z,27.25
2022-10-16T03:02:44.914Z,25.38
2022-10-16T03:05:18.017Z,26.42
2022-10-16T03:08:07.909Z,25.67
2022-10-16T03:10:40.984Z,25.38
2022-10-16T03:13:27.916Z,25.98
2022-10-16T03:16:07.900Z,25.77
2022-10-16T03:19:03.924Z,25.40
2022-10-16T03:21:50.918Z,25.70
2022-10-16T03:24:24.052Z,25.40
2022-10-16T03:27:12.321Z,27.70
2022-10-16T03:29:44.998Z,26.42
2022-10-16T03:32:33.087Z,24.65
2022-10-16T03:35:06.085Z,25.92
2022-10-16T03:37:52.914Z,24.20
2022-10-16T03:40:28.679Z,25.50
2022-10-16T03:45:59.939Z,26.10
2022-10-16T03:48:53.925Z,25.73
2022-10-16T03:51:43.949Z,25.83
2022-10-16T03:54:18.099Z,27.27
2022-10-16T03:57:04.916Z,26.30
2022-10-16T03:59:38.049Z,26.48
2022-10-16T04:02:27.924Z,27.13
2022-10-16T04:05:01.077Z,27.50
2022-10-16T04:07:47.932Z,27.95
2022-10-16T04:10:21.069Z,26.20
2022-10-16T04:13:08.052Z,29.75
2022-10-16T04:15:41.014Z,31.80
2022-10-16T04:18:27.954Z,33.75
2022-10-16T04:21:02.039Z,31.02
2022-10-16T04:23:49.973Z,27.52
2022-10-16T04:26:23.159Z,29.95
2022-10-16T04:29:09.941Z,28.60
2022-10-16T04:31:44.983Z,27.65
2022-10-16T04:34:31.934Z,29.25
2022-10-16T04:37:11.994Z,28.40
2022-10-16T04:40:06.979Z,27.67
2022-10-16T04:42:53.937Z,27.92
2022-10-16T04:45:34.012Z,29.27
2022-10-16T04:48:27.944Z,29.58
2022-10-16T04:51:14.981Z,31.33
2022-10-16T04:53:54.985Z,30.05
2022-10-16T04:56:54.004Z,30.27
2022-10-16T04:59:40.981Z,27.63
2022-10-16T05:02:14.065Z,27.55
2022-10-16T05:05:03.015Z,27.83
2022-10-16T05:07:52.987Z,27.17
2022-10-16T05:10:40.002Z,27.52
2022-10-16T05:13:13.074Z,32.25
2022-10-16T05:16:00.005Z,28.38
2022-10-16T05:18:39.995Z,25.98
2022-10-16T05:21:34.029Z,26.38
2022-10-16T05:24:28.013Z,28.17
2022-10-16T05:27:26.159Z,32.05
2022-10-16T05:30:14.005Z,29.77
2022-10-16T05:32:47.092Z,35.58
2022-10-16T05:35:34.003Z,34.90
2022-10-16T05:38:28.008Z,47.33
2022-10-16T05:41:22.000Z,38.88
2022-10-16T05:44:12.008Z,44.88
2022-10-16T05:46:52.009Z,46.70
2022-10-16T05:49:41.291Z,44.38
2022-10-16T05:52:15.077Z,42.47
2022-10-16T05:55:02.010Z,40.15
2022-10-16T05:57:42.022Z,42.88
2022-10-16T06:00:36.006Z,43.88
2022-10-16T06:03:22.999Z,43.65
2022-10-16T06:05:56.107Z,35.10
2022-10-16T06:08:43.013Z,28.70
2022-10-16T06:11:26.986Z,30.25
2022-10-16T06:14:17.011Z,28.35
2022-10-16T06:16:56.995Z,32.40
2022-10-16T06:19:44.010Z,27.98
2022-10-16T06:22:24.105Z,27.90
2022-10-16T06:25:18.019Z,28.05
2022-10-16T06:28:05.073Z,31.25
2022-10-16T06:30:38.110Z,31.13
2022-10-16T06:33:25.006Z,28.23
2022-10-16T06:35:58.105Z,28.70
2022-10-16T06:38:50.901Z,29.52
2022-10-16T06:41:38.067Z,29.58
2022-10-16T06:44:24.997Z,31.75
2022-10-16T06:46:58.128Z,31.60
2022-10-16T06:49:51.767Z,30.83
2022-10-16T06:52:27.433Z,29.80
2022-10-16T06:55:14.061Z,29.05
2022-10-16T06:57:47.121Z,30.73
2022-10-16T07:00:34.050Z,30.80
2022-10-16T07:03:14.060Z,28.70
2022-10-16T07:06:00.996Z,31.15
2022-10-16T07:08:40.985Z,29.35
2022-10-16T07:11:39.083Z,30.13
2022-10-16T07:14:28.070Z,30.75
2022-10-16T07:17:01.136Z,30.23
2022-10-16T07:19:48.052Z,29.33
2022-10-16T07:22:28.252Z,26.77
2022-10-16T07:25:16.141Z,28.00
2022-10-16T07:27:49.118Z,25.63
2022-10-16T07:30:36.047Z,27.38
2022-10-16T07:33:16.067Z,32.40
2022-10-16T07:36:15.185Z,27.15
2022-10-16T07:39:03.091Z,28.00
2022-10-16T07:41:44.100Z,26.02
2022-10-16T07:44:32.902Z,25.38
2022-10-16T07:47:13.081Z,25.33
2022-10-16T07:50:07.057Z,25.73
2022-10-16T07:52:54.101Z,25.92
2022-10-16T07:55:27.121Z,25.52
2022-10-16T07:58:14.060Z,25.67
2022-10-16T08:00:54.248Z,27.27
2022-10-16T08:03:41.087Z,26.10
2022-10-16T08:06:26.703Z,29.17
2022-10-16T08:09:23.081Z,26.95
2022-10-16T08:12:10.115Z,26.85
2022-10-16T08:14:45.671Z,23.52
2022-10-16T08:17:34.053Z,26.58
2022-10-16T08:20:07.207Z,27.48
2022-10-16T08:22:54.057Z,25.08
2022-10-16T08:25:37.096Z,26.13
2022-10-16T08:28:24.189Z,26.38
2022-10-16T08:31:05.087Z,25.10
2022-10-16T08:34:00.094Z,25.17
2022-10-16T08:36:54.107Z,26.50
2022-10-16T08:39:43.091Z,26.30
2022-10-16T08:42:53.092Z,25.85
2022-10-16T08:46:04.149Z,25.25
2022-10-16T08:49:05.080Z,26.08
2022-10-16T08:52:01.138Z,24.00
2022-10-16T08:54:55.094Z,23.42
2022-10-16T08:57:32.526Z,26.88
2022-10-16T09:00:21.126Z,25.95
2022-10-16T09:03:13.465Z,25.65
2022-10-16T09:06:13.079Z,26.70
2022-10-16T09:08:52.188Z,22.88
2022-10-16T09:11:57.126Z,26.15
2022-10-16T09:14:37.568Z,23.58
2022-10-16T09:17:38.121Z,25.38
2022-10-16T09:20:47.131Z,24.88
2022-10-16T09:23:43.129Z,25.63
2022-10-16T09:26:30.119Z,24.88
2022-10-16T09:29:03.234Z,26.42
2022-10-16T09:31:51.130Z,24.20
2022-10-16T09:34:51.128Z,24.17
2022-10-16T09:37:46.109Z,25.00
2022-10-16T09:40:36.120Z,24.40
2022-10-16T09:43:13.481Z,25.35
2022-10-16T09:46:09.132Z,24.02
2022-10-16T09:48:51.183Z,26.83
2022-10-16T09:51:44.119Z,26.73
2022-10-16T09:54:17.178Z,25.58
2022-10-16T09:57:15.132Z,25.40
2022-10-16T10:00:11.129Z,25.60
2022-10-16T10:03:06.159Z,24.30
2022-10-16T10:05:58.540Z,25.67
2022-10-16T10:08:34.212Z,25.30
2022-10-16T10:11:21.123Z,26.00
2022-10-16T10:14:01.129Z,25.90
2022-10-16T10:16:57.458Z,24.45
2022-10-16T10:19:57.129Z,28.92
2022-10-16T10:22:52.221Z,26.15
2022-10-16T10:26:02.113Z,24.90
2022-10-16T10:28:38.256Z,24.45
2022-10-16T10:31:32.120Z,24.70
2022-10-16T10:34:34.120Z,23.85
2022-10-16T10:37:41.180Z,26.20
2022-10-16T10:40:56.123Z,25.75
2022-10-16T10:43:45.188Z,23.95
2022-10-16T10:46:30.996Z,23.65
2022-10-16T10:49:18.153Z,25.60
2022-10-16T10:52:15.199Z,25.85
2022-10-16T10:55:22.134Z,24.08
2022-10-16T10:58:16.097Z,23.70
2022-10-16T11:01:29.205Z,24.70
2022-10-16T11:04:26.146Z,25.48
2022-10-16T11:07:30.371Z,25.52
2022-10-16T11:10:35.454Z,23.35
2022-10-16T11:14:01.188Z,22.50
2022-10-16T11:16:44.151Z,22.95
2022-10-16T11:19:52.126Z,25.70
2022-10-16T11:22:53.186Z,23.52
2022-10-16T11:25:48.147Z,22.77
2022-10-16T11:28:41.260Z,23.63
2022-10-16T11:31:39.233Z,23.20
2022-10-16T11:34:30.735Z,22.58
2022-10-16T11:37:42.174Z,22.70
2022-10-16T11:40:48.154Z,22.17
2022-10-16T11:43:57.168Z,27.67
2022-10-16T11:46:59.428Z,28.48
2022-10-16T11:50:00.155Z,24.70
2022-10-16T11:53:08.259Z,26.70
2022-10-16T11:55:55.176Z,26.92
2022-10-16T11:58:43.242Z,28.58
2022-10-16T12:01:41.173Z,23.55
2022-10-16T12:04:35.328Z,23.52
2022-10-16T12:07:40.171Z,25.38
2022-10-16T12:10:47.333Z,25.35
2022-10-16T12:13:41.168Z,27.33
2022-10-16T12:16:20.273Z,23.42
2022-10-16T12:19:23.192Z,24.08
2022-10-16T12:22:04.185Z,23.35
2022-10-16T12:24:58.165Z,25.13
2022-10-16T12:27:53.189Z,22.77
2022-10-16T12:30:43.186Z,21.75
2022-10-16T12:33:45.209Z,22.83
2022-10-16T12:36:49.181Z,21.90
2022-10-16T12:39:36.201Z,22.15
2022-10-16T12:42:12.250Z,22.55
2022-10-16T12:44:59.196Z,23.90
2022-10-16T12:47:38.292Z,22.00
2022-10-16T12:50:39.250Z,25.10
2022-10-16T12:53:27.380Z,23.98
2022-10-16T12:56:23.187Z,26.25
2022-10-16T12:59:03.308Z,25.27
2022-10-16T13:02:26.239Z,28.23
2022-10-16T13:05:17.212Z,29.45
2022-10-16T13:08:26.231Z,26.27
2022-10-16T13:11:25.223Z,21.40
2022-10-16T13:14:04.292Z,24.30
2022-10-16T13:17:10.208Z,23.52
2022-10-16T13:19:58.303Z,22.08
2022-10-16T13:23:04.193Z,22.25
2022-10-16T13:25:59.339Z,23.27
2022-10-16T13:28:47.268Z,20.73
2022-10-16T13:31:34.224Z,21.52
2022-10-16T13:34:25.215Z,23.67
2022-10-16T13:37:07.223Z,19.65
2022-10-16T13:39:54.216Z,21.95
2022-10-16T13:42:41.219Z,20.55
2022-10-16T13:45:30.222Z,20.38
2022-10-16T13:48:21.217Z,20.05
2022-10-16T13:51:14.303Z,21.83
2022-10-16T13:53:48.306Z,21.33
2022-10-16T13:56:38.241Z,19.92
2022-10-16T13:59:21.247Z,20.25
2022-10-16T14:02:25.519Z,18.98
2022-10-16T14:05:17.249Z,20.70
2022-10-16T14:07:57.227Z,25.13
2022-10-16T14:10:44.254Z,23.13
2022-10-16T14:13:26.316Z,23.30
2022-10-16T14:16:23.252Z,21.85
2022-10-16T14:19:14.245Z,18.88
2022-10-16T14:22:02.244Z,18.70
2022-10-16T14:24:52.240Z,19.20
2022-10-16T14:27:51.324Z,18.23
2022-10-16T14:30:48.253Z,18.20
2022-10-16T14:33:38.248Z,19.10
2022-10-16T14:36:21.647Z,19.45
2022-10-16T14:39:14.291Z,20.95
2022-10-16T14:41:56.326Z,19.13
2022-10-16T14:44:43.275Z,18.63
2022-10-16T14:47:23.463Z,16.30
2022-10-16T14:50:10.259Z,18.58
2022-10-16T14:52:44.504Z,17.55
2022-10-16T14:55:32.265Z,20.13
2022-10-16T14:58:05.346Z,18.73
2022-10-16T15:00:52.253Z,17.90
2022-10-16T15:03:25.425Z,19.63
2022-10-16T15:06:18.267Z,19.73
2022-10-16T15:08:51.359Z,19.25
2022-10-16T15:11:40.265Z,18.25
2022-10-16T15:14:20.262Z,18.15
2022-10-16T15:17:16.386Z,19.98
2022-10-16T15:20:06.259Z,19.13
2022-10-16T15:22:39.372Z,19.92
2022-10-16T15:25:40.284Z,19.85
2022-10-16T15:28:13.387Z,21.63
2022-10-16T15:31:02.291Z,18.80
2022-10-16T15:33:42.270Z,18.92
2022-10-16T15:36:44.328Z,22.25
2022-10-16T15:39:40.564Z,21.38
2022-10-16T15:42:35.283Z,27.05
2022-10-16T15:45:22.277Z,20.23
2022-10-16T15:47:55.379Z,21.35
2022-10-16T15:53:23.363Z,21.13
2022-10-16T15:56:11.311Z,21.75
2022-10-16T15:58:44.426Z,24.23
2022-10-16T16:01:31.329Z,24.30
2022-10-16T16:04:15.446Z,22.88
2022-10-16T16:07:14.319Z,24.42
2022-10-16T16:09:54.305Z,26.75
2022-10-16T16:12:48.293Z,22.10
2022-10-16T16:15:35.325Z,22.40
2022-10-16T16:18:17.306Z,21.92
2022-10-16T16:21:13.623Z,21.50
2022-10-16T16:24:00.304Z,20.58
2022-10-16T16:26:43.320Z,22.45
2022-10-16T16:29:30.299Z,24.73
2022-10-16T16:32:03.402Z,26.90
2022-10-16T16:34:50.311Z,29.13
2022-10-16T16:37:30.642Z,36.45
2022-10-16T16:40:24.310Z,48.90
2022-10-16T16:43:11.331Z,41.78
2022-10-16T16:45:51.321Z,33.85
2022-10-16T16:48:39.321Z,32.65
2022-10-16T16:51:23.303Z,29.48
2022-10-16T16:54:10.295Z,29.13
2022-10-16T16:56:46.827Z,27.88
2022-10-16T16:59:33.342Z,26.73
2022-10-16T17:02:14.356Z,28.42
2022-10-16T17:05:08.313Z,24.20
2022-10-16T17:08:02.329Z,25.15
2022-10-16T17:10:52.335Z,26.08
2022-10-16T17:13:33.353Z,24.00
2022-10-16T17:16:27.346Z,29.20
2022-10-16T17:19:15.353Z,26.55
2022-10-16T17:21:49.468Z,23.13
2022-10-16T17:24:36.344Z,24.95
2022-10-16T17:27:10.137Z,26.08
2022-10-16T17:29:59.351Z,26.35
2022-10-16T17:32:32.517Z,26.38
2022-10-16T17:35:19.338Z,24.55
2022-10-16T17:37:52.483Z,25.92
2022-10-16T17:40:39.350Z,26.45
2022-10-16T17:43:13.414Z,26.55
2022-10-16T17:46:00.368Z,24.83
2022-10-16T17:48:33.442Z,24.27
2022-10-16T17:51:22.373Z,22.13
2022-10-16T17:54:04.354Z,24.33
2022-10-16T17:56:51.356Z,28.75
2022-10-16T17:59:31.373Z,23.20
2022-10-16T18:02:18.371Z,22.13
2022-10-16T18:04:51.990Z,36.13
2022-10-16T18:07:38.439Z,43.90
2022-10-16T18:10:12.600Z,51.08
2022-10-16T18:12:59.366Z,33.55
2022-10-16T18:15:32.443Z,31.30
2022-10-16T18:18:19.370Z,34.53
2022-10-16T18:20:59.379Z,31.05
2022-10-16T18:23:51.957Z,31.42
2022-10-16T18:26:33.373Z,44.03
2022-10-16T18:29:27.366Z,45.80
2022-10-16T18:32:14.374Z,32.08
2022-10-16T18:34:54.367Z,32.38
2022-10-16T18:37:51.456Z,28.40
2022-10-16T18:40:45.398Z,28.13
2022-10-16T18:43:32.388Z,27.38
2022-10-16T18:46:08.469Z,27.42
2022-10-16T18:48:56.378Z,24.75
2022-10-16T18:51:45.381Z,27.88
2022-10-16T18:54:39.373Z,23.77
2022-10-16T18:57:33.390Z,24.38
2022-10-16T19:00:20.373Z,23.75
2022-10-16T19:02:53.461Z,24.10
2022-10-16T19:05:40.416Z,25.80
2022-10-16T19:08:13.674Z,26.92
2022-10-16T19:11:00.384Z,23.77
2022-10-16T19:13:33.475Z,22.80
2022-10-16T19:16:26.404Z,25.42
2022-10-16T19:19:02.486Z,23.10
2022-10-16T19:21:50.382Z,25.40
2022-10-16T19:24:30.413Z,24.35
2022-10-16T19:27:17.400Z,24.60
2022-10-16T19:29:57.392Z,25.23
2022-10-16T19:32:56.500Z,46.80
2022-10-16T19:35:43.410Z,90.85
2022-10-16T19:38:16.472Z,64.20
2022-10-16T19:41:03.441Z,48.53
2022-10-16T19:43:36.606Z,51.33
2022-10-16T19:46:25.413Z,46.53
2022-10-16T19:49:13.419Z,48.10
2022-10-16T19:52:07.412Z,39.00
2022-10-16T19:54:55.417Z,43.97
2022-10-16T19:57:28.552Z,39.25
2022-10-16T20:00:16.409Z,35.28
2022-10-16T20:02:49.501Z,38.47
2022-10-16T20:05:36.415Z,42.17
2022-10-16T20:08:09.487Z,32.28
2022-10-16T20:10:58.418Z,30.60
2022-10-16T20:13:31.531Z,28.65
2022-10-16T20:16:19.414Z,28.55
2022-10-16T20:18:54.515Z,27.92
2022-10-16T20:21:41.427Z,27.00
2022-10-16T20:24:22.421Z,26.23
2022-10-16T20:27:09.428Z,26.65
2022-10-16T20:29:42.504Z,26.08
2022-10-16T20:32:29.409Z,27.98
2022-10-16T20:35:16.439Z,26.98
2022-10-16T20:38:03.435Z,26.10
2022-10-16T20:40:43.702Z,29.75
2022-10-16T20:43:30.491Z,26.10
2022-10-16T20:46:13.548Z,26.35
2022-10-16T20:49:10.712Z,27.88
2022-10-16T20:51:49.995Z,28.40
2022-10-16T20:54:36.453Z,25.60
2022-10-16T20:57:16.447Z,33.03
2022-10-16T21:00:10.459Z,24.58
2022-10-16T21:02:58.471Z,27.10
2022-10-16T21:05:34.431Z,27.10
2022-10-16T21:08:21.463Z,29.45
2022-10-16T21:10:54.508Z,27.42
2022-10-16T21:13:41.459Z,33.45
2022-10-16T21:16:15.534Z,38.13
2022-10-16T21:19:02.433Z,33.55
2022-10-16T21:21:38.333Z,38.28
2022-10-16T21:24:25.459Z,33.58
2022-10-16T21:26:58.615Z,32.92
2022-10-16T21:32:23.533Z,30.50
2022-10-16T21:35:11.446Z,32.50
2022-10-16T21:37:44.518Z,29.73
2022-10-16T21:40:31.468Z,35.05
2022-10-16T21:43:11.464Z,38.22
2022-10-16T21:46:05.455Z,34.65
2022-10-16T21:48:52.474Z,34.55
2022-10-16T21:51:25.526Z,35.05
2022-10-16T21:54:15.470Z,33.40
2022-10-16T21:56:55.483Z,28.10
2022-10-16T21:59:49.464Z,25.23
2022-10-16T22:02:36.460Z,25.90
2022-10-16T22:05:09.634Z,25.70
2022-10-16T22:07:56.470Z,26.50
2022-10-16T22:10:29.534Z,27.75
2022-10-16T22:13:16.491Z,28.55
2022-10-16T22:15:56.087Z,27.10
2022-10-16T22:18:43.493Z,27.25
2022-10-16T22:21:16.554Z,25.88
2022-10-16T22:24:05.459Z,27.23
2022-10-16T22:26:46.480Z,28.30
2022-10-16T22:29:40.483Z,28.55
2022-10-16T22:32:27.482Z,26.55
2022-10-16T22:35:00.541Z,27.30
2022-10-16T22:37:54.494Z,28.73
2022-10-16T22:40:49.487Z,25.20
2022-10-16T22:43:36.482Z,26.70
2022-10-16T22:46:11.570Z,24.40
2022-10-16T22:48:58.517Z,25.75
2022-10-16T22:51:34.039Z,25.23
2022-10-16T22:54:20.497Z,25.38
2022-10-16T22:57:00.501Z,25.88
2022-10-16T22:59:54.493Z,24.73
2022-10-16T23:02:41.523Z,23.90
2022-10-16T23:05:22.497Z,24.65
2022-10-16T23:08:16.493Z,26.05
2022-10-16T23:11:07.514Z,26.67
2022-10-16T23:13:45.769Z,25.88
2022-10-16T23:16:32.515Z,25.20
2022-10-16T23:19:05.605Z,23.98
2022-10-16T23:21:52.505Z,23.90
2022-10-16T23:24:25.591Z,24.88
2022-10-16T23:27:12.496Z,26.88
2022-10-16T23:29:45.692Z,27.70
2022-10-16T23:32:32.514Z,26.85
2022-10-16T23:35:12.486Z,25.83
2022-10-16T23:38:06.508Z,27.65
2022-10-16T23:40:53.512Z,24.48
2022-10-16T23:43:26.594Z,25.95
2022-10-16T23:46:15.630Z,26.00
2022-10-16T23:48:48.561Z,26.30
2022-10-16T23:51:35.537Z,27.20
2022-10-16T23:54:08.586Z,26.90
2022-10-16T23:56:55.523Z,25.15
2022-10-16T23:59:35.515Z,25.98
